createdAt,value
2018-07-27T14:25:29.196Z,8.00
2018-07-27T14:27:57.688Z,7.97
2018-07-27T14:30:26.149Z,7.00
2018-07-27T14:32:54.991Z,7.40
2018-07-27T14:35:23.103Z,7.20
2018-07-27T14:37:51.521Z,8.33
2018-07-27T14:40:19.971Z,7.30
2018-07-27T14:42:48.502Z,7.67
2018-07-27T14:45:17.015Z,7.90
2018-07-27T14:47:45.887Z,7.33
2018-07-27T14:50:14.403Z,7.70
2018-07-27T14:52:42.832Z,7.20
2018-07-27T14:55:11.152Z,6.73
2018-07-27T14:57:39.553Z,7.07
2018-07-27T15:00:08.080Z,7.30
2018-07-27T15:02:36.491Z,6.80
2018-07-27T15:05:04.966Z,7.83
2018-07-27T15:07:33.287Z,7.63
2018-07-27T15:10:01.743Z,7.63
2018-07-27T15:12:30.338Z,7.40
2018-07-27T15:18:34.461Z,8.30
2018-07-27T15:21:02.869Z,7.17
2018-07-27T15:23:31.492Z,8.13
2018-07-27T15:25:59.913Z,7.30
2018-07-27T15:28:28.355Z,6.80
2018-07-27T15:30:57.674Z,6.70
2018-07-27T15:33:26.288Z,6.80
2018-07-27T15:35:55.226Z,6.93
2018-07-27T15:38:24.204Z,7.07
2018-07-27T15:40:52.595Z,6.70
2018-07-27T15:43:21.641Z,6.30
2018-07-27T15:45:50.044Z,6.20
2018-07-27T15:48:18.558Z,5.90
2018-07-27T15:50:47.064Z,6.80
2018-07-27T15:53:15.514Z,5.93
2018-07-27T15:55:43.922Z,6.40
2018-07-27T15:58:12.352Z,5.37
2018-07-27T16:00:40.733Z,6.03
2018-07-27T16:03:09.634Z,6.00
2018-07-27T16:05:38.026Z,6.07
2018-07-27T16:08:06.785Z,5.63
2018-07-27T16:10:35.452Z,5.37
2018-07-27T16:13:03.783Z,5.50
2018-07-27T16:15:32.156Z,6.30
2018-07-27T16:18:00.707Z,6.53
2018-07-27T16:20:29.162Z,5.70
2018-07-27T16:22:57.561Z,5.50
2018-07-27T16:25:26.111Z,7.10
2018-07-27T16:27:54.807Z,5.83
2018-07-27T16:30:23.352Z,6.13
2018-07-27T16:32:51.856Z,6.50
2018-07-27T16:35:20.244Z,6.23
2018-07-27T16:37:48.600Z,5.80
2018-07-27T16:40:17.071Z,6.10
2018-07-27T16:42:45.465Z,5.40
2018-07-27T16:45:13.880Z,6.40
2018-07-27T16:47:42.297Z,6.10
2018-07-27T16:50:10.675Z,6.00
2018-07-27T16:52:39.015Z,6.40
2018-07-27T16:55:07.421Z,6.30
2018-07-27T16:57:35.818Z,6.57
2018-07-27T17:00:04.280Z,6.10
2018-07-27T17:02:32.655Z,6.27
2018-07-27T17:05:01.035Z,6.30
2018-07-27T17:07:29.349Z,6.10
2018-07-27T17:09:58.071Z,6.77
2018-07-27T17:12:26.471Z,6.40
2018-07-27T17:14:54.932Z,6.10
2018-07-27T17:17:23.375Z,6.27
2018-07-27T17:19:51.772Z,5.90
2018-07-27T17:22:20.247Z,6.57
2018-07-27T17:24:48.713Z,5.90
2018-07-27T17:27:17.174Z,5.60
2018-07-27T17:29:46.324Z,6.10
2018-07-27T17:32:14.748Z,6.10
2018-07-27T17:34:43.247Z,5.93
2018-07-27T17:37:11.751Z,5.10
2018-07-27T17:39:39.907Z,5.80
2018-07-27T17:42:08.290Z,5.50
2018-07-27T17:44:36.764Z,6.33
2018-07-27T17:47:06.383Z,5.23
2018-07-27T17:49:34.839Z,6.30
2018-07-27T17:52:04.406Z,6.23
2018-07-27T17:54:32.792Z,6.07
2018-07-27T17:57:01.316Z,6.07
2018-07-27T17:59:29.716Z,6.10
2018-07-27T18:01:58.092Z,5.80
2018-07-27T18:04:26.647Z,5.07
2018-07-27T18:06:55.099Z,5.20
2018-07-27T18:09:23.600Z,5.30
2018-07-27T18:11:52.114Z,6.20
2018-07-27T18:14:20.574Z,5.60
2018-07-27T18:16:49.041Z,6.23
2018-07-27T18:19:17.472Z,6.13
2018-07-27T18:21:45.961Z,6.03
2018-07-27T18:24:14.061Z,5.80
2018-07-27T18:26:42.122Z,5.70
2018-07-27T18:29:10.566Z,5.63
2018-07-27T18:31:39.024Z,5.20
2018-07-27T18:34:08.101Z,6.23
2018-07-27T18:36:37.292Z,5.63
2018-07-27T18:39:09.053Z,6.13
2018-07-27T18:41:38.472Z,6.33
2018-07-27T18:44:07.236Z,6.20
2018-07-27T18:46:36.874Z,6.37
2018-07-27T18:49:05.858Z,5.77
2018-07-27T18:51:36.053Z,5.77
2018-07-27T18:54:05.895Z,6.10
2018-07-27T18:56:35.248Z,7.27
2018-07-27T18:59:04.740Z,7.07
2018-07-27T19:01:34.028Z,6.40
2018-07-27T19:04:03.219Z,7.03
2018-07-27T19:06:33.089Z,6.20
2018-07-27T19:09:02.722Z,6.30
2018-07-27T19:11:33.424Z,6.80
2018-07-27T19:14:04.181Z,7.00
2018-07-27T19:16:32.308Z,6.90
2018-07-27T19:19:03.693Z,7.60
2018-07-27T19:21:32.957Z,9.17
2018-07-27T19:24:02.341Z,7.80
2018-07-27T19:26:31.736Z,7.60
2018-07-27T19:29:07.232Z,7.80
2018-07-27T19:31:36.420Z,6.83
2018-07-27T19:34:08.526Z,6.47
2018-07-27T19:36:37.692Z,6.33
2018-07-27T19:39:08.935Z,5.40
2018-07-27T19:41:38.231Z,5.97
2018-07-27T19:44:06.826Z,6.63
2018-07-27T19:46:35.241Z,5.90
2018-07-27T19:49:03.803Z,6.63
2018-07-27T19:51:32.184Z,6.73
2018-07-27T19:54:00.682Z,6.70
2018-07-27T19:56:29.568Z,6.20
2018-07-27T19:58:58.092Z,6.60
2018-07-27T20:01:26.630Z,6.10
2018-07-27T20:03:55.411Z,6.43
2018-07-27T20:06:23.975Z,5.67
2018-07-27T20:08:52.488Z,6.00
2018-07-27T20:11:20.950Z,6.70
2018-07-27T20:13:50.123Z,5.97
2018-07-27T20:16:18.573Z,6.50
2018-07-27T20:18:47.445Z,6.87
2018-07-27T20:21:15.938Z,7.00
2018-07-27T20:23:44.542Z,6.73
2018-07-27T20:26:12.918Z,6.60
2018-07-27T20:28:41.720Z,6.50
2018-07-27T20:31:10.214Z,6.30
2018-07-27T20:33:38.625Z,6.80
2018-07-27T20:36:06.976Z,7.20
2018-07-27T20:38:35.457Z,6.77
2018-07-27T20:41:03.941Z,7.70
2018-07-27T20:43:32.360Z,7.63
2018-07-27T20:46:01.602Z,7.20
2018-07-27T20:48:30.271Z,7.13
2018-07-27T20:50:58.976Z,7.77
2018-07-27T20:53:27.433Z,7.67
2018-07-27T20:55:56.447Z,7.37
2018-07-27T20:58:25.185Z,7.60
2018-07-27T21:00:54.017Z,6.87
2018-07-27T21:03:22.981Z,7.57
2018-07-27T21:05:52.048Z,7.70
2018-07-27T21:08:20.973Z,7.07
2018-07-27T21:10:49.404Z,7.87
2018-07-27T21:13:18.395Z,6.30
2018-07-27T21:15:47.225Z,6.73
2018-07-27T21:18:15.792Z,7.00
2018-07-27T21:20:44.331Z,6.37
2018-07-27T21:23:12.759Z,6.83
2018-07-27T21:25:42.357Z,7.03
2018-07-27T21:28:11.135Z,7.00
2018-07-27T21:30:39.891Z,6.93
2018-07-27T21:33:08.385Z,6.80
2018-07-27T21:35:38.177Z,7.20
2018-07-27T21:38:07.194Z,6.17
2018-07-27T21:40:36.033Z,7.03
2018-07-27T21:43:04.894Z,7.37
2018-07-27T21:45:33.716Z,8.60
2018-07-27T21:48:02.571Z,7.53
2018-07-27T21:50:31.450Z,7.43
2018-07-27T21:53:00.284Z,8.50
2018-07-27T21:55:28.772Z,6.90
2018-07-27T21:57:57.276Z,7.00
2018-07-27T22:00:25.806Z,7.43
2018-07-27T22:02:54.736Z,7.40
2018-07-27T22:05:23.262Z,7.00
2018-07-27T22:07:54.179Z,6.40
2018-07-27T22:10:24.232Z,7.17
2018-07-27T22:12:53.032Z,7.30
2018-07-27T22:15:24.032Z,6.30
2018-07-27T22:17:52.528Z,7.37
2018-07-27T22:20:22.428Z,6.70
2018-07-27T22:22:50.860Z,6.90
2018-07-27T22:25:19.306Z,6.43
2018-07-27T22:27:48.592Z,6.60
2018-07-27T22:30:17.018Z,6.53
2018-07-27T22:32:45.411Z,6.33
2018-07-27T22:35:13.794Z,7.33
2018-07-27T22:37:42.192Z,6.17
2018-07-27T22:40:11.596Z,7.47
2018-07-27T22:42:40.268Z,6.97
2018-07-27T22:45:09.590Z,7.00
2018-07-27T22:47:38.018Z,6.87
2018-07-27T22:50:06.972Z,7.30
2018-07-27T22:52:41.047Z,7.53
2018-07-27T22:55:13.153Z,7.50
2018-07-27T22:57:42.523Z,7.00
2018-07-27T23:00:13.421Z,7.00
2018-07-27T23:02:42.169Z,7.70
2018-07-27T23:05:10.932Z,8.10
2018-07-27T23:07:39.275Z,7.07
2018-07-27T23:10:08.769Z,7.53
2018-07-27T23:12:37.338Z,6.93
2018-07-27T23:15:07.649Z,6.43
2018-07-27T23:17:36.092Z,6.53
2018-07-27T23:20:07.556Z,6.57
2018-07-27T23:22:35.972Z,7.33
2018-07-27T23:25:05.133Z,7.70
2018-07-27T23:27:33.451Z,7.40
2018-07-27T23:30:01.836Z,6.30
2018-07-27T23:32:30.257Z,6.60
2018-07-27T23:34:58.630Z,6.10
2018-07-27T23:37:27.036Z,6.53
2018-07-27T23:39:55.456Z,6.17
2018-07-27T23:42:24.897Z,6.40
2018-07-27T23:44:53.334Z,6.23
2018-07-27T23:47:21.692Z,6.60
2018-07-27T23:49:50.009Z,6.63
2018-07-27T23:52:18.407Z,6.20
2018-07-27T23:54:46.735Z,7.40
2018-07-27T23:57:15.159Z,6.10
2018-07-27T23:59:43.539Z,6.50
